Corpus Christi International Airport
KCRP : now visible

Airfield :











YOU CAN JOIN US ON...

 
LOGIN :

Register | Disclaimer

   EN    FR    IT 

 









Legend :    VFR   Marginal VFR   IFR   Intensive IFR   Very Intensive IFR
Visi :
Ceiling :
>= 8 km
>= 3000ft
5 to 8 km
1000 to 3000 ft
1500m to 5 km
500 to 1000 ft
800 to 1500m
200 to 500 ft
< 800m
< 200 ft
Symbols :   Thunderstorms  Fog  Heavy snow  Heavy precipitations  Wind > 20 kt






- Airport Elevation : 44 ft
- IATA code : CRP


KCRP - Corpus Christi International

CURRENT METAR :
  • 191451Z 01010KT 5SM BR OVC005 13/12 A3019 RMK AO2 DZE26 SLP223 P0000 60000 T01280122 51020

EXPIRED METARs :
  • 191435Z 36011KT 3SM BR OVC004 12/12 A3019 RMK AO2 DZE26 P0000 T01220117
  • 191417Z 36011KT 2SM -DZ BR OVC004 13/12 A3019 RMK AO2 P0000 T01280122
  • 191351Z 35010KT 1 3/4SM -DZ BR OVC004 12/12 A3018 RMK AO2 SLP221 P0000 T01220117
  • 191251Z 36012KT 5SM -DZ BR OVC006 13/12 A3016 RMK AO2 DZB41 SLP213 P0000 T01280117 $

TAF KCRP
Valid from the 19 at 14:00 until the 20 at 12:00 UTC


191424Z 1914/2012 02016KT P6SM VCSH OVC009
TEMPO 1914/1916 2SM -DZ BR OVC004
FM192300 02010KT 5SM -RADZ BR OVC004



MET'MAP, your aeronautical weather chart ! - Copyright ORBIFLY December 2007 - Disclaimer

ORBIFLY MET'MAP TEAM :

Programming & Development : Alexandra Zaïnal
Concept & original design : Baudouin d'Aumeries
Assistance for programming : Marc-Olivier Méhu
Technical & hardware support : Manuel Goepfert

Contact : metmap@orbifly.com




SOURCES & CREDITS :

   NOAA       Earth
Advisory